createdAt,value
2022-08-25T00:00:49.464Z,76.79
2022-08-25T00:01:57.417Z,77.51
2022-08-25T00:02:59.705Z,77.23
2022-08-25T00:04:04.689Z,76.92
2022-08-25T00:05:07.277Z,77.34
2022-08-25T00:06:11.360Z,77.54
2022-08-25T00:07:13.120Z,77.82
2022-08-25T00:08:20.279Z,78.35
2022-08-25T00:09:25.417Z,78.82
2022-08-25T00:10:27.446Z,79.33
2022-08-25T00:11:32.923Z,80.35
2022-08-25T00:12:35.001Z,80.90
2022-08-25T00:13:36.815Z,80.96
2022-08-25T00:14:38.561Z,81.59
2022-08-25T00:15:40.718Z,82.21
2022-08-25T00:16:43.555Z,82.06
2022-08-25T00:17:45.613Z,82.10
2022-08-25T00:18:52.095Z,82.48
2022-08-25T00:19:53.815Z,82.12
2022-08-25T00:20:55.566Z,81.40
2022-08-25T00:21:57.362Z,81.65
2022-08-25T00:22:59.249Z,81.32
2022-08-25T00:24:02.520Z,81.24
2022-08-25T00:25:04.710Z,81.01
2022-08-25T00:26:08.161Z,81.29
2022-08-25T00:27:12.387Z,80.97
2022-08-25T00:28:16.820Z,80.70
2022-08-25T00:29:19.331Z,80.03
2022-08-25T00:30:22.006Z,79.40
2022-08-25T00:31:24.364Z,78.85
2022-08-25T00:32:39.973Z,79.26
2022-08-25T00:33:42.558Z,78.45
2022-08-25T00:34:44.705Z,78.91
2022-08-25T00:35:46.482Z,79.01
2022-08-25T00:36:51.009Z,78.77
2022-08-25T00:37:52.762Z,78.62
2022-08-25T00:38:55.204Z,78.66
2022-08-25T00:39:58.735Z,78.53
2022-08-25T00:41:06.894Z,77.88
2022-08-25T00:42:11.855Z,77.70
2022-08-25T00:43:18.867Z,78.03
2022-08-25T00:44:21.010Z,77.83
2022-08-25T00:45:23.502Z,77.86
2022-08-25T00:46:29.165Z,78.18
2022-08-25T00:47:31.241Z,78.28
2022-08-25T00:48:32.963Z,78.01
2022-08-25T00:49:37.428Z,77.70
2022-08-25T00:50:39.143Z,77.12
2022-08-25T00:51:47.005Z,76.47
2022-08-25T00:52:52.495Z,77.80
2022-08-25T00:53:54.461Z,77.70
2022-08-25T00:55:07.937Z,77.93
2022-08-25T00:56:13.355Z,78.04
2022-08-25T00:57:18.599Z,78.21
2022-08-25T00:58:26.620Z,78.13
2022-08-25T00:59:29.190Z,78.35
2022-08-25T01:00:38.270Z,77.62
2022-08-25T01:01:41.180Z,77.83
2022-08-25T01:02:43.220Z,77.66
2022-08-25T01:03:44.934Z,77.36
2022-08-25T01:04:47.736Z,77.46
2022-08-25T01:05:51.894Z,77.55
2022-08-25T01:06:53.954Z,77.70
2022-08-25T01:07:58.563Z,76.86
2022-08-25T01:09:00.880Z,77.46
2022-08-25T01:10:02.799Z,76.95
2022-08-25T01:11:07.502Z,77.24
2022-08-25T01:12:09.262Z,77.62
2022-08-25T01:13:19.615Z,78.01
2022-08-25T01:14:23.248Z,77.58
2022-08-25T01:15:24.995Z,77.50
2022-08-25T01:16:27.396Z,77.52
2022-08-25T01:17:50.393Z,77.42
2022-08-25T01:18:56.605Z,77.55
2022-08-25T01:19:58.331Z,77.50
2022-08-25T01:21:00.258Z,77.47
2022-08-25T01:22:02.126Z,77.36
2022-08-25T01:23:04.373Z,77.71
2022-08-25T01:24:07.561Z,78.98
2022-08-25T01:25:39.730Z,79.69
2022-08-25T01:26:41.511Z,80.07
2022-08-25T01:27:43.290Z,80.47
2022-08-25T01:29:06.542Z,80.61
2022-08-25T01:30:09.474Z,80.91
2022-08-25T01:31:24.143Z,80.78
2022-08-25T01:32:26.700Z,80.05
2022-08-25T01:33:28.454Z,80.01
2022-08-25T01:34:32.421Z,79.46
2022-08-25T01:35:34.712Z,78.77
2022-08-25T01:36:36.728Z,77.55
2022-08-25T01:37:38.559Z,76.94
2022-08-25T01:38:40.253Z,76.74
2022-08-25T01:39:42.607Z,77.70
2022-08-25T01:40:44.717Z,78.19
2022-08-25T01:41:46.561Z,77.42
2022-08-25T01:43:01.996Z,76.11
2022-08-25T01:44:07.397Z,74.42
2022-08-25T01:45:17.674Z,73.76
2022-08-25T01:46:19.489Z,73.99
2022-08-25T01:47:21.326Z,73.62
2022-08-25T01:48:23.063Z,73.30
2022-08-25T01:49:24.832Z,73.89
2022-08-25T01:50:26.656Z,72.22
2022-08-25T01:51:33.301Z,73.09
2022-08-25T01:52:47.621Z,72.09
2022-08-25T01:53:49.813Z,70.75
2022-08-25T01:54:51.655Z,71.36
2022-08-25T01:56:02.682Z,71.07
2022-08-25T01:57:06.300Z,71.48
2022-08-25T01:58:07.991Z,70.87
2022-08-25T01:59:10.080Z,70.93
2022-08-25T02:00:14.666Z,71.43
2022-08-25T02:01:23.006Z,71.10
2022-08-25T02:02:26.022Z,71.24
2022-08-25T02:03:28.959Z,71.67
2022-08-25T02:04:32.539Z,72.43
2022-08-25T02:05:34.910Z,72.76
2022-08-25T02:06:37.575Z,72.99
2022-08-25T02:07:44.260Z,73.21
2022-08-25T02:08:46.085Z,73.21
2022-08-25T02:09:49.701Z,73.08
2022-08-25T02:10:53.156Z,72.90
2022-08-25T02:11:55.301Z,72.68
2022-08-25T02:12:57.014Z,72.40
2022-08-25T02:13:59.378Z,71.88
2022-08-25T02:15:04.220Z,72.18
2022-08-25T02:16:06.392Z,72.23
2022-08-25T02:17:08.318Z,72.45
2022-08-25T02:18:10.954Z,72.97
2022-08-25T02:19:12.709Z,73.40
2022-08-25T02:20:14.426Z,73.46
2022-08-25T02:21:16.615Z,73.40
2022-08-25T02:22:19.003Z,72.85
2022-08-25T02:23:21.385Z,72.66
2022-08-25T02:24:23.233Z,72.16
2022-08-25T02:25:25.033Z,72.29
2022-08-25T02:26:27.127Z,72.47
2022-08-25T02:27:28.959Z,72.60
2022-08-25T02:28:30.797Z,72.70
2022-08-25T02:29:32.671Z,72.47
2022-08-25T02:30:36.562Z,72.20
2022-08-25T02:31:39.323Z,72.17
2022-08-25T02:32:41.189Z,72.00
2022-08-25T02:33:43.028Z,72.13
2022-08-25T02:34:44.809Z,72.35
2022-08-25T02:35:46.643Z,72.66
2022-08-25T02:36:48.336Z,72.22
2022-08-25T02:37:53.629Z,71.95
2022-08-25T02:38:56.368Z,72.37
2022-08-25T02:39:58.146Z,72.32
2022-08-25T02:41:01.387Z,72.21
2022-08-25T02:42:03.637Z,72.41
2022-08-25T02:43:05.987Z,72.51
2022-08-25T02:44:08.920Z,72.20
2022-08-25T02:45:11.002Z,72.47
2022-08-25T02:46:13.235Z,72.58
2022-08-25T02:47:15.102Z,72.05
2022-08-25T02:48:16.826Z,72.39
2022-08-25T02:49:18.902Z,72.61
2022-08-25T02:50:20.851Z,72.68
2022-08-25T02:51:24.816Z,72.88
2022-08-25T02:52:26.529Z,72.79
2022-08-25T02:53:29.585Z,72.67
2022-08-25T02:54:31.452Z,72.52
2022-08-25T02:55:34.562Z,72.64
2022-08-25T02:56:36.789Z,72.89
2022-08-25T02:57:38.507Z,72.94
2022-08-25T02:58:41.812Z,72.89
2022-08-25T02:59:43.743Z,72.73
2022-08-25T03:00:46.780Z,72.19
2022-08-25T03:01:48.615Z,72.46
2022-08-25T03:02:50.312Z,72.20
2022-08-25T03:03:52.892Z,72.19
2022-08-25T03:04:55.277Z,72.19
2022-08-25T03:05:57.852Z,71.74
2022-08-25T03:06:59.769Z,71.29
2022-08-25T03:08:01.593Z,71.40
2022-08-25T03:09:03.741Z,71.02
2022-08-25T03:10:12.996Z,70.12
2022-08-25T03:11:14.848Z,70.37
2022-08-25T03:12:17.252Z,69.32
2022-08-25T03:13:19.062Z,69.98
2022-08-25T03:14:20.779Z,69.75
2022-08-25T03:15:22.600Z,69.60
2022-08-25T03:16:27.905Z,69.40
2022-08-25T03:17:29.889Z,68.88
2022-08-25T03:18:32.604Z,68.97
2022-08-25T03:19:35.176Z,68.76
2022-08-25T03:20:37.098Z,68.77
2022-08-25T03:21:39.158Z,68.55
2022-08-25T03:22:40.931Z,68.27
2022-08-25T03:23:43.947Z,68.24
2022-08-25T03:24:45.676Z,68.05
2022-08-25T03:26:06.638Z,67.89
2022-08-25T03:27:08.404Z,67.78
2022-08-25T03:28:10.374Z,67.30
2022-08-25T03:29:12.159Z,68.31
2022-08-25T03:30:13.865Z,67.88
2022-08-25T03:31:15.866Z,67.67
2022-08-25T03:32:18.029Z,67.33
2022-08-25T03:33:20.352Z,67.20
2022-08-25T03:34:23.056Z,66.40
2022-08-25T03:35:24.832Z,66.56
2022-08-25T03:36:27.758Z,66.34
2022-08-25T03:37:29.579Z,66.26
2022-08-25T03:38:31.372Z,66.51
2022-08-25T03:39:33.085Z,66.39
2022-08-25T03:40:35.137Z,65.96
2022-08-25T03:41:37.129Z,66.28
2022-08-25T03:42:45.177Z,65.67
2022-08-25T03:43:48.723Z,65.61
2022-08-25T03:44:50.749Z,65.55
2022-08-25T03:45:52.517Z,65.12
2022-08-25T03:46:54.536Z,65.47
2022-08-25T03:47:56.873Z,65.98
2022-08-25T03:49:01.319Z,65.39
2022-08-25T03:50:04.719Z,65.73
2022-08-25T03:51:06.614Z,65.66
2022-08-25T03:52:08.358Z,65.65
2022-08-25T03:53:12.734Z,65.34
2022-08-25T03:54:16.764Z,65.01
2022-08-25T03:55:18.524Z,65.22
2022-08-25T03:56:20.955Z,65.54
2022-08-25T03:57:23.537Z,65.99
2022-08-25T03:58:25.298Z,65.63
2022-08-25T03:59:27.405Z,65.23
2022-08-25T04:00:29.324Z,64.75
2022-08-25T04:01:31.122Z,64.86
2022-08-25T04:02:33.953Z,65.05
2022-08-25T04:03:36.272Z,64.52
2022-08-25T04:04:40.345Z,64.35
2022-08-25T04:05:43.116Z,64.21
2022-08-25T04:06:44.945Z,64.44
2022-08-25T04:07:46.657Z,63.96
2022-08-25T04:08:49.065Z,64.37
2022-08-25T04:09:50.759Z,64.05
2022-08-25T04:10:52.478Z,64.20
2022-08-25T04:11:54.408Z,64.31
2022-08-25T04:12:56.240Z,64.05
2022-08-25T04:13:59.228Z,64.91
2022-08-25T04:15:01.369Z,64.13
2022-08-25T04:16:10.171Z,64.05
2022-08-25T04:17:11.934Z,63.79
2022-08-25T04:18:13.708Z,63.83
2022-08-25T04:19:15.542Z,63.88
2022-08-25T04:20:17.493Z,63.46
2022-08-25T04:21:20.959Z,63.45
2022-08-25T04:22:22.696Z,63.51
2022-08-25T04:23:24.847Z,64.12
2022-08-25T04:24:26.572Z,63.24
2022-08-25T04:25:28.733Z,62.66
2022-08-25T04:26:34.101Z,62.79
2022-08-25T04:27:36.693Z,63.06
2022-08-25T04:28:38.542Z,63.11
2022-08-25T04:29:40.408Z,62.99
2022-08-25T04:30:43.880Z,62.62
2022-08-25T04:31:50.462Z,62.23
2022-08-25T04:32:52.250Z,62.06
2022-08-25T04:33:54.283Z,62.10
2022-08-25T04:34:56.090Z,62.34
2022-08-25T04:35:58.908Z,61.88
2022-08-25T04:37:03.135Z,61.84
2022-08-25T04:38:05.313Z,61.22
2022-08-25T04:39:07.150Z,61.11
2022-08-25T04:40:10.651Z,60.58
2022-08-25T04:41:14.746Z,60.25
2022-08-25T04:42:16.580Z,60.54
2022-08-25T04:43:18.290Z,60.78
2022-08-25T04:44:20.122Z,60.22
2022-08-25T04:45:21.887Z,60.73
2022-08-25T04:46:27.495Z,60.38
2022-08-25T04:47:29.259Z,60.69
2022-08-25T04:48:31.571Z,60.87
2022-08-25T04:49:33.321Z,60.81
2022-08-25T04:50:39.758Z,60.64
2022-08-25T04:51:42.542Z,60.69
2022-08-25T04:52:44.312Z,60.13
2022-08-25T04:53:46.430Z,60.66
2022-08-25T04:54:48.181Z,60.07
2022-08-25T04:55:49.957Z,60.47
2022-08-25T04:56:54.661Z,60.75
2022-08-25T04:58:00.598Z,60.04
2022-08-25T04:59:05.062Z,59.09
2022-08-25T05:00:07.656Z,59.78
2022-08-25T05:01:15.949Z,59.16
2022-08-25T05:02:17.882Z,58.90
2022-08-25T05:03:19.800Z,58.74
2022-08-25T05:04:28.417Z,58.04
2022-08-25T05:05:32.077Z,58.42
2022-08-25T05:06:35.911Z,58.15
2022-08-25T05:07:37.606Z,58.59
2022-08-25T05:08:40.114Z,57.26
2022-08-25T05:09:41.923Z,56.77
2022-08-25T05:10:43.978Z,56.81
2022-08-25T05:11:45.783Z,56.46
2022-08-25T05:12:48.748Z,56.72
2022-08-25T05:13:53.472Z,56.70
2022-08-25T05:14:55.588Z,56.58
2022-08-25T05:16:00.115Z,57.81
2022-08-25T05:17:02.569Z,56.93
2022-08-25T05:18:04.430Z,56.94
2022-08-25T05:19:07.557Z,56.98
2022-08-25T05:20:09.667Z,57.28
2022-08-25T05:21:15.565Z,57.90
2022-08-25T05:22:17.340Z,57.50
2022-08-25T05:23:19.318Z,58.12
2022-08-25T05:24:22.305Z,58.24
2022-08-25T05:25:24.348Z,58.18
2022-08-25T05:26:30.805Z,58.28
2022-08-25T05:27:34.448Z,58.09
2022-08-25T05:28:36.483Z,57.76
2022-08-25T05:29:38.221Z,58.03
2022-08-25T05:30:40.632Z,58.00
2022-08-25T05:31:48.262Z,57.94
2022-08-25T05:32:51.704Z,58.52
2022-08-25T05:33:53.874Z,58.16
2022-08-25T05:34:55.904Z,58.65
2022-08-25T05:35:57.882Z,59.55
2022-08-25T05:37:03.396Z,58.68
2022-08-25T05:38:05.967Z,57.80
2022-08-25T05:39:07.819Z,57.91
2022-08-25T05:40:10.449Z,57.69
2022-08-25T05:41:18.858Z,58.48
2022-08-25T05:42:20.615Z,56.21
2022-08-25T05:43:22.345Z,56.69
2022-08-25T05:44:24.072Z,56.83
2022-08-25T05:45:26.408Z,57.00
2022-08-25T05:46:28.515Z,57.09
2022-08-25T05:47:34.655Z,55.58
2022-08-25T05:48:37.811Z,55.67
2022-08-25T05:49:39.700Z,55.96
2022-08-25T05:50:41.506Z,56.29
2022-08-25T05:51:43.343Z,55.94
2022-08-25T05:52:45.392Z,55.66
2022-08-25T05:53:49.944Z,56.18
2022-08-25T05:54:51.675Z,56.34
2022-08-25T05:55:55.240Z,56.34
2022-08-25T05:56:57.033Z,55.64
2022-08-25T05:57:59.435Z,56.49
2022-08-25T05:59:02.445Z,56.38
2022-08-25T06:00:09.067Z,56.75
2022-08-25T06:01:38.185Z,56.96
2022-08-25T06:02:44.736Z,57.55
2022-08-25T06:03:47.855Z,56.57
2022-08-25T06:04:49.726Z,55.63
2022-08-25T06:05:51.427Z,55.16
2022-08-25T06:06:55.070Z,54.56
2022-08-25T06:07:57.003Z,54.07
2022-08-25T06:08:58.736Z,54.43
2022-08-25T06:10:00.637Z,53.27
2022-08-25T06:11:02.367Z,52.13
2022-08-25T06:12:04.189Z,51.04
2022-08-25T06:13:06.458Z,50.50
2022-08-25T06:14:10.402Z,51.22
2022-08-25T06:15:17.383Z,51.85
2022-08-25T06:16:19.136Z,50.83
2022-08-25T06:17:20.879Z,49.98
2022-08-25T06:18:22.594Z,50.12
2022-08-25T06:19:24.701Z,50.24
2022-08-25T06:20:29.086Z,50.74
2022-08-25T06:21:30.888Z,50.49
2022-08-25T06:22:32.826Z,50.53
2022-08-25T06:23:34.542Z,50.52
2022-08-25T06:24:38.178Z,52.05
2022-08-25T06:25:40.335Z,51.94
2022-08-25T06:26:42.084Z,51.98
2022-08-25T06:27:43.790Z,51.61
2022-08-25T06:28:46.191Z,52.08
2022-08-25T06:29:48.044Z,51.73
2022-08-25T06:30:59.312Z,52.14
2022-08-25T06:32:01.092Z,52.55
2022-08-25T06:33:02.789Z,52.82
2022-08-25T06:34:04.890Z,53.70
2022-08-25T06:35:10.176Z,53.05
2022-08-25T06:36:11.906Z,52.94
2022-08-25T06:37:13.630Z,53.46
2022-08-25T06:38:15.343Z,53.36
2022-08-25T06:39:17.306Z,53.67
2022-08-25T06:40:19.181Z,51.81
2022-08-25T06:41:21.004Z,51.57
2022-08-25T06:42:22.814Z,50.92
2022-08-25T06:43:24.783Z,50.46
2022-08-25T06:44:27.775Z,50.96
2022-08-25T06:45:29.588Z,50.25
2022-08-25T06:46:36.089Z,50.10
2022-08-25T06:47:38.632Z,49.26
2022-08-25T06:48:40.762Z,49.84
2022-08-25T06:49:43.110Z,49.02
2022-08-25T06:50:45.065Z,48.42
2022-08-25T06:51:47.093Z,48.92
2022-08-25T06:52:48.808Z,48.13
2022-08-25T06:53:51.293Z,49.29
2022-08-25T06:54:53.420Z,48.69
2022-08-25T06:56:02.248Z,48.49
2022-08-25T06:57:07.011Z,48.00
2022-08-25T06:58:11.238Z,47.46
2022-08-25T06:59:13.642Z,46.73
2022-08-25T07:00:16.540Z,46.98
2022-08-25T07:01:25.796Z,46.78
2022-08-25T07:02:27.933Z,47.84
2022-08-25T07:03:31.038Z,47.04
2022-08-25T07:04:34.696Z,47.37
2022-08-25T07:05:44.111Z,47.18
2022-08-25T07:06:46.037Z,46.74
2022-08-25T07:07:48.086Z,46.60
2022-08-25T07:08:49.976Z,45.34
2022-08-25T07:09:52.019Z,45.95
2022-08-25T07:10:53.791Z,46.05
2022-08-25T07:11:57.234Z,44.55
2022-08-25T07:12:58.926Z,43.86
2022-08-25T07:14:03.267Z,43.81
2022-08-25T07:15:21.095Z,43.41
2022-08-25T07:16:29.785Z,43.60
2022-08-25T07:17:32.908Z,42.82
2022-08-25T07:18:35.926Z,43.08
2022-08-25T07:19:37.654Z,42.71
2022-08-25T07:20:40.723Z,42.43
2022-08-25T07:21:45.900Z,43.38
2022-08-25T07:22:48.520Z,42.44
2022-08-25T07:23:50.304Z,42.73
2022-08-25T07:24:52.025Z,42.20
2022-08-25T07:25:54.767Z,42.05
2022-08-25T07:26:56.549Z,41.56
2022-08-25T07:27:59.102Z,42.04
2022-08-25T07:29:01.337Z,42.24
2022-08-25T07:30:04.792Z,42.59
2022-08-25T07:31:06.962Z,42.72
2022-08-25T07:32:11.736Z,42.05
2022-08-25T07:33:13.717Z,42.86
2022-08-25T07:34:34.782Z,41.63
2022-08-25T07:35:37.965Z,41.36
2022-08-25T07:36:39.940Z,41.94
2022-08-25T07:37:52.979Z,41.83
2022-08-25T07:38:55.460Z,41.01
2022-08-25T07:39:59.518Z,41.00
2022-08-25T07:41:03.398Z,41.39
2022-08-25T07:42:05.670Z,41.27
2022-08-25T07:43:13.719Z,40.67
2022-08-25T07:44:15.518Z,41.58
2022-08-25T07:45:20.559Z,41.57
2022-08-25T07:46:22.673Z,41.47
2022-08-25T07:47:24.540Z,41.27
2022-08-25T07:48:26.449Z,41.20
2022-08-25T07:49:36.005Z,40.21
2022-08-25T07:50:45.189Z,39.95
2022-08-25T07:52:04.086Z,40.42
2022-08-25T07:53:09.938Z,41.67
2022-08-25T07:54:12.348Z,40.80
2022-08-25T07:55:18.009Z,41.87
2022-08-25T07:56:19.925Z,41.35
2022-08-25T07:57:24.057Z,41.34
2022-08-25T07:58:25.972Z,40.79
2022-08-25T07:59:27.837Z,40.59
2022-08-25T08:00:33.424Z,40.16
2022-08-25T08:01:38.548Z,41.21
2022-08-25T08:02:43.662Z,40.94
2022-08-25T08:03:50.696Z,42.63
2022-08-25T08:04:54.389Z,40.87
2022-08-25T08:05:56.769Z,41.15
2022-08-25T08:06:58.451Z,39.92
2022-08-25T08:08:01.136Z,40.70
2022-08-25T08:09:03.207Z,40.78
2022-08-25T08:10:42.439Z,39.91
2022-08-25T08:11:34.696Z,41.45
2022-08-25T08:12:36.670Z,41.12
2022-08-25T08:13:41.428Z,41.30
2022-08-25T08:14:45.184Z,39.28
2022-08-25T08:15:48.483Z,39.76
2022-08-25T08:16:50.690Z,39.83
2022-08-25T08:17:52.491Z,39.51
2022-08-25T08:18:54.826Z,38.75
2022-08-25T08:19:57.163Z,38.12
2022-08-25T08:20:58.882Z,37.48
2022-08-25T08:22:03.633Z,37.12
2022-08-25T08:23:06.080Z,36.96
2022-08-25T08:24:24.908Z,36.96
2022-08-25T08:25:27.620Z,38.22
2022-08-25T08:26:55.463Z,37.08
2022-08-25T08:27:55.108Z,36.72
2022-08-25T08:28:57.047Z,35.96
2022-08-25T08:30:00.439Z,35.69
2022-08-25T08:31:02.768Z,35.17
2022-08-25T08:32:07.225Z,36.02
2022-08-25T08:33:11.310Z,36.10
2022-08-25T08:34:13.819Z,35.87
2022-08-25T08:35:18.996Z,35.98
2022-08-25T08:36:22.112Z,36.54
2022-08-25T08:37:28.191Z,36.06
2022-08-25T08:38:30.498Z,35.67
2022-08-25T08:39:32.770Z,35.11
2022-08-25T08:41:05.689Z,35.38
2022-08-25T08:42:38.108Z,34.13
2022-08-25T08:43:42.649Z,34.82
2022-08-25T08:44:50.516Z,33.88
2022-08-25T08:45:53.679Z,34.42
2022-08-25T08:47:11.315Z,33.47
2022-08-25T08:48:40.853Z,33.05
2022-08-25T08:49:57.547Z,35.00
2022-08-25T08:51:15.379Z,33.56
2022-08-25T08:52:21.615Z,33.77
2022-08-25T08:53:49.766Z,33.48
2022-08-25T08:55:00.790Z,32.73
2022-08-25T08:56:07.221Z,31.60
2022-08-25T08:57:18.931Z,32.15
2022-08-25T08:58:26.258Z,32.22
2022-08-25T08:59:33.878Z,30.83
2022-08-25T09:00:42.533Z,32.68
2022-08-25T09:02:00.395Z,33.02
2022-08-25T09:03:06.974Z,31.80
2022-08-25T09:04:10.535Z,30.53
2022-08-25T09:05:16.936Z,31.55
2022-08-25T09:06:42.742Z,32.19
2022-08-25T09:07:55.113Z,32.28
2022-08-25T09:09:02.272Z,32.69
2022-08-25T09:10:09.996Z,32.57
2022-08-25T09:11:30.595Z,30.81
2022-08-25T09:12:48.062Z,30.33
2022-08-25T09:14:04.551Z,30.99
2022-08-25T09:15:22.447Z,31.18
2022-08-25T09:16:55.721Z,31.28
2022-08-25T09:18:17.355Z,31.03
2022-08-25T09:19:41.928Z,30.70
2022-08-25T09:20:55.365Z,30.06
2022-08-25T09:22:01.852Z,29.35
2022-08-25T09:23:21.698Z,29.65
2022-08-25T09:24:35.507Z,31.56
2022-08-25T09:25:53.082Z,30.69
2022-08-25T09:27:14.122Z,30.75
2022-08-25T09:28:26.067Z,28.44
2022-08-25T09:29:37.525Z,29.76
2022-08-25T09:30:49.803Z,28.20
2022-08-25T09:31:51.976Z,29.59
2022-08-25T09:33:05.296Z,30.80
2022-08-25T09:34:32.652Z,29.64
2022-08-25T09:35:39.507Z,27.91
2022-08-25T09:36:41.936Z,28.41
2022-08-25T09:37:43.795Z,27.98
2022-08-25T09:38:46.246Z,29.59
2022-08-25T09:39:48.026Z,30.18
2022-08-25T09:40:54.412Z,29.02
2022-08-25T09:42:00.382Z,28.32
2022-08-25T09:43:05.776Z,28.41
2022-08-25T09:44:18.428Z,27.88
2022-08-25T09:45:39.671Z,28.91
2022-08-25T09:47:02.311Z,28.04
2022-08-25T09:48:21.841Z,28.09
2022-08-25T09:49:37.672Z,28.95
2022-08-25T09:50:43.951Z,29.54
2022-08-25T09:51:48.579Z,28.94
2022-08-25T09:52:54.525Z,29.13
2022-08-25T09:54:18.187Z,29.00
2022-08-25T09:55:34.614Z,28.78
2022-08-25T09:56:55.707Z,28.21
2022-08-25T09:57:58.527Z,27.91
2022-08-25T09:59:35.652Z,28.73
2022-08-25T10:00:38.513Z,28.25
2022-08-25T10:01:58.578Z,28.06
2022-08-25T10:03:22.681Z,27.23
2022-08-25T10:04:33.940Z,26.89
2022-08-25T10:05:57.913Z,27.45
2022-08-25T10:07:25.628Z,27.24
2022-08-25T10:08:43.211Z,27.68
2022-08-25T10:09:55.739Z,28.41
2022-08-25T10:10:59.963Z,27.87
2022-08-25T10:12:05.042Z,28.98
2022-08-25T10:13:15.346Z,28.35
2022-08-25T10:14:36.537Z,28.01
2022-08-25T10:15:39.858Z,28.90
2022-08-25T10:16:41.847Z,27.50
2022-08-25T10:17:50.285Z,27.21
2022-08-25T10:19:13.637Z,28.61
2022-08-25T10:20:25.413Z,27.15
2022-08-25T10:21:27.154Z,27.85
2022-08-25T10:22:32.645Z,28.49
2022-08-25T10:23:38.895Z,29.02
2022-08-25T10:24:43.949Z,28.43
2022-08-25T10:25:57.738Z,29.21
2022-08-25T10:27:12.948Z,28.69
2022-08-25T10:28:35.717Z,28.90
2022-08-25T10:30:08.584Z,29.61
2022-08-25T10:31:42.610Z,28.96
2022-08-25T10:32:53.578Z,29.86
2022-08-25T10:33:58.125Z,29.56
2022-08-25T10:35:14.161Z,30.89
2022-08-25T10:36:29.935Z,30.84
2022-08-25T10:37:52.221Z,31.54
2022-08-25T10:39:03.778Z,32.12
2022-08-25T10:40:21.922Z,31.53
2022-08-25T10:41:46.956Z,31.83
2022-08-25T10:42:57.236Z,31.51
2022-08-25T10:44:48.789Z,30.97
2022-08-25T10:45:54.707Z,31.10
2022-08-25T10:47:14.723Z,30.31
2022-08-25T10:48:39.076Z,30.75
2022-08-25T10:49:52.173Z,30.82
2022-08-25T10:51:03.069Z,30.66
2022-08-25T10:52:19.064Z,30.99
2022-08-25T10:53:41.120Z,31.56
2022-08-25T10:55:19.089Z,31.07
2022-08-25T10:56:27.604Z,31.01
2022-08-25T10:57:36.199Z,31.02
2022-08-25T10:59:18.326Z,30.56
2022-08-25T11:00:31.806Z,30.59
2022-08-25T11:01:43.582Z,30.37
2022-08-25T11:02:52.251Z,31.52
2022-08-25T11:04:26.181Z,30.38
2022-08-25T11:05:43.061Z,30.31
2022-08-25T11:07:13.979Z,29.63
2022-08-25T11:08:43.513Z,31.48
2022-08-25T11:09:49.332Z,31.77
2022-08-25T11:11:02.478Z,31.16
2022-08-25T11:12:19.354Z,30.31
2022-08-25T11:13:36.949Z,31.03
2022-08-25T11:14:56.440Z,29.44
2022-08-25T11:16:17.362Z,29.32
2022-08-25T11:17:26.297Z,30.57
2022-08-25T11:18:31.960Z,27.52
2022-08-25T11:19:38.609Z,26.93
2022-08-25T11:20:59.891Z,27.66
2022-08-25T11:22:24.727Z,27.00
2022-08-25T11:23:50.183Z,27.11
2022-08-25T11:25:12.381Z,26.31
2022-08-25T11:26:20.902Z,28.01
2022-08-25T11:27:28.886Z,27.34
2022-08-25T11:28:49.233Z,26.56
2022-08-25T11:30:02.076Z,26.06
2022-08-25T11:31:09.489Z,26.80
2022-08-25T11:32:11.523Z,26.85
2022-08-25T11:33:19.517Z,26.03
2022-08-25T11:34:22.558Z,25.68
2022-08-25T11:35:51.235Z,27.29
2022-08-25T11:36:57.773Z,26.32
2022-08-25T11:38:02.598Z,26.33
2022-08-25T11:39:23.149Z,27.16
2022-08-25T11:40:50.218Z,26.72
2022-08-25T11:42:12.622Z,26.16
2022-08-25T11:43:26.226Z,25.32
2022-08-25T11:44:53.574Z,26.27
2022-08-25T11:46:22.409Z,25.73
2022-08-25T11:47:40.093Z,26.42
2022-08-25T11:49:23.095Z,26.83
2022-08-25T11:50:31.426Z,26.77
2022-08-25T11:51:43.970Z,27.34
2022-08-25T11:52:51.575Z,26.53
2022-08-25T11:54:21.515Z,27.35
2022-08-25T11:55:30.040Z,26.97
2022-08-25T11:56:40.225Z,27.37
2022-08-25T11:57:43.998Z,27.59
2022-08-25T11:58:51.923Z,28.43
2022-08-25T11:59:54.328Z,29.02
2022-08-25T12:00:58.949Z,28.30
2022-08-25T12:02:01.710Z,29.64
2022-08-25T12:03:32.541Z,27.42
2022-08-25T12:04:44.228Z,26.94
2022-08-25T12:05:47.021Z,26.75
2022-08-25T12:07:07.320Z,27.11
2022-08-25T12:08:27.611Z,26.95
2022-08-25T12:09:29.439Z,26.70
2022-08-25T12:10:51.929Z,27.80
2022-08-25T12:11:58.196Z,26.96
2022-08-25T12:13:10.322Z,27.63
2022-08-25T12:14:17.635Z,27.83
2022-08-25T12:15:42.412Z,28.98
2022-08-25T12:17:00.532Z,27.84
2022-08-25T12:18:15.180Z,28.47
2022-08-25T12:19:29.059Z,27.42
2022-08-25T12:20:53.842Z,27.70
2022-08-25T12:22:22.269Z,27.52
2022-08-25T12:23:44.615Z,27.70
2022-08-25T12:25:03.769Z,28.40
2022-08-25T12:26:15.445Z,27.71
2022-08-25T12:27:33.823Z,31.24
2022-08-25T12:29:01.871Z,28.81
2022-08-25T12:30:40.140Z,30.66
2022-08-25T12:32:09.270Z,30.62
2022-08-25T12:33:11.119Z,29.49
2022-08-25T12:34:16.344Z,30.15
2022-08-25T12:36:01.135Z,28.87
2022-08-25T12:37:13.274Z,28.43
2022-08-25T12:38:19.478Z,28.75
2022-08-25T12:39:28.662Z,28.95
2022-08-25T12:40:42.783Z,29.13
2022-08-25T12:41:55.180Z,31.71
2022-08-25T12:43:26.676Z,31.38
2022-08-25T12:44:41.613Z,28.36
2022-08-25T12:45:49.922Z,29.06
2022-08-25T12:47:12.572Z,28.15
2022-08-25T12:48:26.406Z,27.52
2022-08-25T12:49:34.576Z,28.75
2022-08-25T12:50:39.429Z,28.19
2022-08-25T12:51:48.528Z,29.50
2022-08-25T12:52:52.795Z,28.12
2022-08-25T12:54:22.867Z,28.66
2022-08-25T12:55:26.607Z,28.08
2022-08-25T12:56:35.167Z,27.99
2022-08-25T12:57:58.006Z,29.10
2022-08-25T12:59:02.818Z,28.44
2022-08-25T13:00:18.322Z,28.21
2022-08-25T13:01:54.610Z,28.98
2022-08-25T13:03:20.243Z,29.21
2022-08-25T13:04:27.851Z,28.30
2022-08-25T13:05:45.392Z,28.12
2022-08-25T13:07:03.000Z,28.10
2022-08-25T13:08:15.309Z,28.32
2022-08-25T13:09:41.732Z,28.58
2022-08-25T13:11:21.798Z,27.71
2022-08-25T13:12:46.808Z,27.87
2022-08-25T13:14:26.748Z,27.52
2022-08-25T13:15:47.045Z,29.14
2022-08-25T13:16:59.123Z,30.97
2022-08-25T13:18:25.014Z,28.64
2022-08-25T13:19:29.098Z,28.86
2022-08-25T13:20:37.272Z,27.86
2022-08-25T13:21:42.322Z,29.17
2022-08-25T13:22:47.892Z,28.80
2022-08-25T13:24:04.636Z,28.15
2022-08-25T13:25:07.518Z,28.86
2022-08-25T13:26:22.271Z,28.62
2022-08-25T13:27:28.581Z,28.33
2022-08-25T13:28:34.826Z,29.35
2022-08-25T13:29:51.233Z,29.08
2022-08-25T13:31:00.335Z,29.65
2022-08-25T13:32:09.217Z,29.78
2022-08-25T13:33:20.741Z,28.55
2022-08-25T13:34:34.432Z,29.06
2022-08-25T13:35:37.193Z,29.27
2022-08-25T13:37:06.462Z,30.26
2022-08-25T13:38:13.873Z,30.22
2022-08-25T13:39:45.184Z,30.20
2022-08-25T13:40:44.231Z,30.10
2022-08-25T13:41:49.101Z,29.54
2022-08-25T13:43:02.662Z,29.86
2022-08-25T13:44:04.720Z,30.59
2022-08-25T13:45:08.149Z,29.90
2022-08-25T13:46:10.790Z,29.89
2022-08-25T13:47:31.589Z,30.52
2022-08-25T13:48:40.132Z,30.09
2022-08-25T13:49:51.436Z,30.66
2022-08-25T13:51:16.601Z,30.27
2022-08-25T13:52:29.136Z,31.83
2022-08-25T13:53:31.728Z,31.58
2022-08-25T13:54:46.916Z,30.51
2022-08-25T13:55:54.579Z,30.79
2022-08-25T13:57:18.541Z,32.19
2022-08-25T13:58:44.799Z,32.88
2022-08-25T13:59:51.466Z,34.07
2022-08-25T14:01:23.871Z,33.77
2022-08-25T14:02:51.016Z,34.60
2022-08-25T14:03:56.467Z,35.42
2022-08-25T14:05:03.271Z,35.65
2022-08-25T14:06:10.090Z,35.90
2022-08-25T14:07:21.099Z,36.44
2022-08-25T14:08:35.610Z,36.39
2022-08-25T14:10:02.174Z,36.78
2022-08-25T14:11:14.749Z,36.79
2022-08-25T14:12:47.982Z,37.22
2022-08-25T14:14:01.400Z,37.51
2022-08-25T14:15:18.635Z,36.88
2022-08-25T14:16:25.498Z,37.90
2022-08-25T14:17:39.810Z,37.90
2022-08-25T14:18:58.636Z,37.88
2022-08-25T14:20:01.633Z,38.01
2022-08-25T14:21:11.009Z,38.44
2022-08-25T14:22:14.821Z,37.92
2022-08-25T14:23:22.649Z,37.24
2022-08-25T14:24:24.694Z,37.79
2022-08-25T14:25:28.810Z,37.16
2022-08-25T14:26:32.389Z,36.16
2022-08-25T14:27:38.954Z,36.36
2022-08-25T14:28:53.195Z,36.98
2022-08-25T14:29:54.913Z,37.19
2022-08-25T14:31:02.342Z,36.54
2022-08-25T14:32:07.151Z,35.75